sensor_id;sensor_type;location;lat;lon;timestamp;P1;durP1;ratioP1;P2;durP2;ratioP2
6679;SDS011;3376;42.664;23.346;2023-01-28T00:01:06;6.00;;;5.70;;
6679;SDS011;3376;42.664;23.346;2023-01-28T00:03:34;6.47;;;5.40;;
6679;SDS011;3376;42.664;23.346;2023-01-28T00:06:01;5.73;;;5.33;;
6679;SDS011;3376;42.664;23.346;2023-01-28T00:08:30;5.70;;;5.40;;
6679;SDS011;3376;42.664;23.346;2023-01-28T00:10:58;5.50;;;5.20;;
6679;SDS011;3376;42.664;23.346;2023-01-28T00:13:25;5.83;;;5.53;;
6679;SDS011;3376;42.664;23.346;2023-01-28T00:15:53;5.03;;;4.67;;
6679;SDS011;3376;42.664;23.346;2023-01-28T00:18:21;4.80;;;4.60;;
6679;SDS011;3376;42.664;23.346;2023-01-28T00:20:54;5.00;;;4.80;;
6679;SDS011;3376;42.664;23.346;2023-01-28T00:23:22;5.53;;;5.23;;
6679;SDS011;3376;42.664;23.346;2023-01-28T00:25:50;5.60;;;5.20;;
6679;SDS011;3376;42.664;23.346;2023-01-28T00:28:18;6.40;;;6.10;;
6679;SDS011;3376;42.664;23.346;2023-01-28T00:30:45;5.90;;;5.60;;
6679;SDS011;3376;42.664;23.346;2023-01-28T00:33:12;5.50;;;5.30;;
6679;SDS011;3376;42.664;23.346;2023-01-28T00:35:38;6.05;;;5.75;;
6679;SDS011;3376;42.664;23.346;2023-01-28T00:38:05;5.93;;;5.73;;
6679;SDS011;3376;42.664;23.346;2023-01-28T00:40:32;5.93;;;5.53;;
6679;SDS011;3376;42.664;23.346;2023-01-28T00:43:01;5.10;;;4.80;;
6679;SDS011;3376;42.664;23.346;2023-01-28T00:45:27;6.37;;;5.97;;
6679;SDS011;3376;42.664;23.346;2023-01-28T00:47:54;5.07;;;4.87;;
6679;SDS011;3376;42.664;23.346;2023-01-28T00:50:21;5.63;;;5.33;;
6679;SDS011;3376;42.664;23.346;2023-01-28T00:52:48;5.83;;;5.53;;
6679;SDS011;3376;42.664;23.346;2023-01-28T00:55:14;5.07;;;4.87;;
6679;SDS011;3376;42.664;23.346;2023-01-28T00:57:41;6.20;;;5.90;;
6679;SDS011;3376;42.664;23.346;2023-01-28T01:00:10;5.20;;;4.90;;
6679;SDS011;3376;42.664;23.346;2023-01-28T01:02:37;5.27;;;4.97;;
6679;SDS011;3376;42.664;23.346;2023-01-28T01:05:04;5.67;;;5.37;;
6679;SDS011;3376;42.664;23.346;2023-01-28T01:07:31;5.70;;;5.40;;
6679;SDS011;3376;42.664;23.346;2023-01-28T01:09:59;5.47;;;5.17;;
6679;SDS011;3376;42.664;23.346;2023-01-28T01:12:26;5.53;;;5.10;;
6679;SDS011;3376;42.664;23.346;2023-01-28T01:14:53;5.73;;;5.23;;
6679;SDS011;3376;42.664;23.346;2023-01-28T01:17:21;5.57;;;5.33;;
6679;SDS011;3376;42.664;23.346;2023-01-28T01:19:47;6.00;;;5.50;;
6679;SDS011;3376;42.664;23.346;2023-01-28T01:22:14;5.47;;;5.20;;
6679;SDS011;3376;42.664;23.346;2023-01-28T01:24:41;6.33;;;6.03;;
6679;SDS011;3376;42.664;23.346;2023-01-28T01:27:08;5.90;;;5.70;;
6679;SDS011;3376;42.664;23.346;2023-01-28T01:29:34;6.10;;;5.70;;
6679;SDS011;3376;42.664;23.346;2023-01-28T01:32:01;6.03;;;5.77;;
6679;SDS011;3376;42.664;23.346;2023-01-28T01:34:29;6.03;;;5.73;;
6679;SDS011;3376;42.664;23.346;2023-01-28T01:36:56;6.03;;;5.73;;
6679;SDS011;3376;42.664;23.346;2023-01-28T01:39:23;5.87;;;5.57;;
6679;SDS011;3376;42.664;23.346;2023-01-28T01:41:50;7.10;;;6.70;;
6679;SDS011;3376;42.664;23.346;2023-01-28T01:47:20;6.93;;;6.63;;
6679;SDS011;3376;42.664;23.346;2023-01-28T01:49:50;6.47;;;6.18;;
6679;SDS011;3376;42.664;23.346;2023-01-28T01:52:18;6.43;;;6.13;;
6679;SDS011;3376;42.664;23.346;2023-01-28T01:54:50;6.00;;;5.70;;
6679;SDS011;3376;42.664;23.346;2023-01-28T01:57:22;6.33;;;6.03;;
6679;SDS011;3376;42.664;23.346;2023-01-28T01:59:52;6.07;;;5.85;;
6679;SDS011;3376;42.664;23.346;2023-01-28T02:02:19;6.20;;;5.90;;
6679;SDS011;3376;42.664;23.346;2023-01-28T02:04:46;6.20;;;5.90;;
6679;SDS011;3376;42.664;23.346;2023-01-28T02:07:15;6.53;;;6.23;;
6679;SDS011;3376;42.664;23.346;2023-01-28T02:09:43;7.00;;;6.70;;
6679;SDS011;3376;42.664;23.346;2023-01-28T02:12:10;6.95;;;6.65;;
6679;SDS011;3376;42.664;23.346;2023-01-28T02:14:40;6.30;;;6.00;;
6679;SDS011;3376;42.664;23.346;2023-01-28T02:17:10;6.47;;;6.18;;
6679;SDS011;3376;42.664;23.346;2023-01-28T02:19:39;6.27;;;5.97;;
6679;SDS011;3376;42.664;23.346;2023-01-28T02:22:21;5.80;;;5.50;;
6679;SDS011;3376;42.664;23.346;2023-01-28T02:25:10;6.28;;;5.97;;
6679;SDS011;3376;42.664;23.346;2023-01-28T02:27:57;6.13;;;5.82;;
6679;SDS011;3376;42.664;23.346;2023-01-28T02:30:41;6.22;;;5.93;;
6679;SDS011;3376;42.664;23.346;2023-01-28T02:33:16;6.75;;;6.35;;
6679;SDS011;3376;42.664;23.346;2023-01-28T02:35:48;6.40;;;6.10;;
6679;SDS011;3376;42.664;23.346;2023-01-28T02:38:19;6.35;;;6.05;;
6679;SDS011;3376;42.664;23.346;2023-01-28T02:40:51;6.40;;;5.90;;
6679;SDS011;3376;42.664;23.346;2023-01-28T02:43:35;6.10;;;5.80;;
6679;SDS011;3376;42.664;23.346;2023-01-28T02:46:10;5.60;;;5.40;;
6679;SDS011;3376;42.664;23.346;2023-01-28T02:49:01;6.00;;;5.70;;
6679;SDS011;3376;42.664;23.346;2023-01-28T02:51:36;6.63;;;6.33;;
6679;SDS011;3376;42.664;23.346;2023-01-28T02:54:15;6.17;;;5.87;;
6679;SDS011;3376;42.664;23.346;2023-01-28T02:56:51;6.37;;;6.07;;
6679;SDS011;3376;42.664;23.346;2023-01-28T02:59:28;6.70;;;6.20;;
6679;SDS011;3376;42.664;23.346;2023-01-28T03:02:08;6.55;;;6.25;;
6679;SDS011;3376;42.664;23.346;2023-01-28T03:04:40;5.90;;;5.70;;
6679;SDS011;3376;42.664;23.346;2023-01-28T03:07:13;5.83;;;5.53;;
6679;SDS011;3376;42.664;23.346;2023-01-28T03:09:42;5.60;;;5.40;;
6679;SDS011;3376;42.664;23.346;2023-01-28T03:12:13;6.30;;;6.00;;
6679;SDS011;3376;42.664;23.346;2023-01-28T03:15:02;5.87;;;5.67;;
6679;SDS011;3376;42.664;23.346;2023-01-28T03:17:51;6.70;;;6.40;;
6679;SDS011;3376;42.664;23.346;2023-01-28T03:20:41;6.18;;;5.88;;
6679;SDS011;3376;42.664;23.346;2023-01-28T03:23:31;6.10;;;5.80;;
6679;SDS011;3376;42.664;23.346;2023-01-28T03:26:21;6.30;;;6.00;;
6679;SDS011;3376;42.664;23.346;2023-01-28T03:29:07;6.32;;;6.03;;
6679;SDS011;3376;42.664;23.346;2023-01-28T03:31:56;5.90;;;5.60;;
6679;SDS011;3376;42.664;23.346;2023-01-28T03:34:42;6.70;;;6.30;;
6679;SDS011;3376;42.664;23.346;2023-01-28T03:37:28;6.40;;;6.10;;
6679;SDS011;3376;42.664;23.346;2023-01-28T03:39:56;6.50;;;6.10;;
6679;SDS011;3376;42.664;23.346;2023-01-28T03:42:29;5.53;;;5.33;;
6679;SDS011;3376;42.664;23.346;2023-01-28T03:44:56;5.80;;;5.50;;
6679;SDS011;3376;42.664;23.346;2023-01-28T03:47:27;5.70;;;5.40;;
6679;SDS011;3376;42.664;23.346;2023-01-28T03:49:55;6.03;;;5.72;;
6679;SDS011;3376;42.664;23.346;2023-01-28T03:52:24;6.47;;;6.18;;
6679;SDS011;3376;42.664;23.346;2023-01-28T03:54:52;6.68;;;6.22;;
6679;SDS011;3376;42.664;23.346;2023-01-28T03:57:20;6.70;;;6.40;;
6679;SDS011;3376;42.664;23.346;2023-01-28T03:59:48;5.88;;;5.68;;
6679;SDS011;3376;42.664;23.346;2023-01-28T04:02:17;5.18;;;4.97;;
6679;SDS011;3376;42.664;23.346;2023-01-28T04:04:45;6.60;;;6.27;;
6679;SDS011;3376;42.664;23.346;2023-01-28T04:07:14;6.00;;;5.60;;
6679;SDS011;3376;42.664;23.346;2023-01-28T04:09:41;6.47;;;6.17;;
6679;SDS011;3376;42.664;23.346;2023-01-28T04:12:08;6.70;;;6.30;;
6679;SDS011;3376;42.664;23.346;2023-01-28T04:14:35;5.60;;;5.40;;
6679;SDS011;3376;42.664;23.346;2023-01-28T04:17:03;5.97;;;5.67;;
6679;SDS011;3376;42.664;23.346;2023-01-28T04:19:31;5.80;;;5.60;;
6679;SDS011;3376;42.664;23.346;2023-01-28T04:22:03;6.22;;;5.93;;
6679;SDS011;3376;42.664;23.346;2023-01-28T04:24:31;6.07;;;5.77;;
6679;SDS011;3376;42.664;23.346;2023-01-28T04:26:57;6.23;;;5.93;;
6679;SDS011;3376;42.664;23.346;2023-01-28T04:29:24;7.07;;;6.68;;
6679;SDS011;3376;42.664;23.346;2023-01-28T04:31:51;6.13;;;5.87;;
6679;SDS011;3376;42.664;23.346;2023-01-28T04:34:18;6.27;;;5.97;;
6679;SDS011;3376;42.664;23.346;2023-01-28T04:36:45;6.65;;;6.35;;
6679;SDS011;3376;42.664;23.346;2023-01-28T04:39:13;6.70;;;6.40;;
6679;SDS011;3376;42.664;23.346;2023-01-28T04:41:40;6.18;;;5.97;;
6679;SDS011;3376;42.664;23.346;2023-01-28T04:44:07;5.87;;;5.57;;
6679;SDS011;3376;42.664;23.346;2023-01-28T04:46:33;6.27;;;5.97;;
6679;SDS011;3376;42.664;23.346;2023-01-28T04:49:00;5.93;;;5.63;;
6679;SDS011;3376;42.664;23.346;2023-01-28T04:51:27;6.18;;;5.68;;
6679;SDS011;3376;42.664;23.346;2023-01-28T04:53:54;6.20;;;5.70;;
6679;SDS011;3376;42.664;23.346;2023-01-28T04:56:22;5.53;;;5.33;;
6679;SDS011;3376;42.664;23.346;2023-01-28T04:58:49;6.17;;;5.97;;
6679;SDS011;3376;42.664;23.346;2023-01-28T05:01:15;6.37;;;6.07;;
6679;SDS011;3376;42.664;23.346;2023-01-28T05:03:42;5.67;;;5.37;;
6679;SDS011;3376;42.664;23.346;2023-01-28T05:06:09;5.83;;;5.57;;
6679;SDS011;3376;42.664;23.346;2023-01-28T05:08:36;6.88;;;6.47;;
6679;SDS011;3376;42.664;23.346;2023-01-28T05:11:03;5.78;;;5.47;;
6679;SDS011;3376;42.664;23.346;2023-01-28T05:13:31;5.63;;;5.32;;
6679;SDS011;3376;42.664;23.346;2023-01-28T05:15:58;4.80;;;4.60;;
6679;SDS011;3376;42.664;23.346;2023-01-28T05:18:24;5.63;;;5.32;;
6679;SDS011;3376;42.664;23.346;2023-01-28T05:20:51;5.10;;;4.90;;
6679;SDS011;3376;42.664;23.346;2023-01-28T05:23:18;6.07;;;5.77;;
6679;SDS011;3376;42.664;23.346;2023-01-28T05:25:44;7.70;;;5.33;;
6679;SDS011;3376;42.664;23.346;2023-01-28T05:28:11;6.00;;;5.70;;
6679;SDS011;3376;42.664;23.346;2023-01-28T05:30:39;5.33;;;5.13;;
6679;SDS011;3376;42.664;23.346;2023-01-28T05:33:06;5.63;;;5.35;;
6679;SDS011;3376;42.664;23.346;2023-01-28T05:35:33;6.60;;;6.30;;
6679;SDS011;3376;42.664;23.346;2023-01-28T05:38:00;6.63;;;6.25;;
6679;SDS011;3376;42.664;23.346;2023-01-28T05:40:27;6.28;;;6.07;;
6679;SDS011;3376;42.664;23.346;2023-01-28T05:42:54;6.82;;;6.43;;
6679;SDS011;3376;42.664;23.346;2023-01-28T05:45:20;6.25;;;5.95;;
6679;SDS011;3376;42.664;23.346;2023-01-28T05:47:49;6.13;;;5.88;;
6679;SDS011;3376;42.664;23.346;2023-01-28T05:50:15;5.55;;;5.35;;
6679;SDS011;3376;42.664;23.346;2023-01-28T05:52:42;5.97;;;5.68;;
6679;SDS011;3376;42.664;23.346;2023-01-28T05:55:10;6.30;;;5.97;;
6679;SDS011;3376;42.664;23.346;2023-01-28T05:57:36;6.50;;;6.10;;
6679;SDS011;3376;42.664;23.346;2023-01-28T06:00:04;6.72;;;6.43;;
6679;SDS011;3376;42.664;23.346;2023-01-28T06:02:31;5.95;;;5.65;;
6679;SDS011;3376;42.664;23.346;2023-01-28T06:04:59;6.50;;;6.10;;
6679;SDS011;3376;42.664;23.346;2023-01-28T06:07:26;6.50;;;6.20;;
6679;SDS011;3376;42.664;23.346;2023-01-28T06:09:53;6.67;;;6.37;;
6679;SDS011;3376;42.664;23.346;2023-01-28T06:12:19;6.83;;;6.53;;
6679;SDS011;3376;42.664;23.346;2023-01-28T06:14:46;6.73;;;6.43;;
6679;SDS011;3376;42.664;23.346;2023-01-28T06:17:13;7.00;;;6.63;;
6679;SDS011;3376;42.664;23.346;2023-01-28T06:19:39;6.33;;;6.03;;
6679;SDS011;3376;42.664;23.346;2023-01-28T06:22:08;6.55;;;6.25;;
6679;SDS011;3376;42.664;23.346;2023-01-28T06:24:35;6.63;;;6.22;;
6679;SDS011;3376;42.664;23.346;2023-01-28T06:27:01;7.13;;;6.83;;
6679;SDS011;3376;42.664;23.346;2023-01-28T06:29:28;6.32;;;6.03;;
6679;SDS011;3376;42.664;23.346;2023-01-28T06:31:55;6.43;;;6.13;;
6679;SDS011;3376;42.664;23.346;2023-01-28T06:34:22;6.77;;;6.47;;
6679;SDS011;3376;42.664;23.346;2023-01-28T06:36:48;7.28;;;6.97;;
6679;SDS011;3376;42.664;23.346;2023-01-28T06:39:18;6.15;;;5.85;;
6679;SDS011;3376;42.664;23.346;2023-01-28T06:41:46;5.55;;;5.25;;
6679;SDS011;3376;42.664;23.346;2023-01-28T06:44:13;6.57;;;6.17;;
6679;SDS011;3376;42.664;23.346;2023-01-28T06:46:39;6.40;;;6.00;;
6679;SDS011;3376;42.664;23.346;2023-01-28T06:49:06;6.50;;;5.90;;
6679;SDS011;3376;42.664;23.346;2023-01-28T06:51:33;6.43;;;6.13;;
6679;SDS011;3376;42.664;23.346;2023-01-28T06:54:00;5.93;;;5.53;;
6679;SDS011;3376;42.664;23.346;2023-01-28T06:56:28;7.25;;;6.93;;
6679;SDS011;3376;42.664;23.346;2023-01-28T06:58:55;7.20;;;6.90;;
6679;SDS011;3376;42.664;23.346;2023-01-28T07:01:21;7.40;;;6.87;;
6679;SDS011;3376;42.664;23.346;2023-01-28T07:03:48;8.03;;;7.53;;
6679;SDS011;3376;42.664;23.346;2023-01-28T07:06:15;7.17;;;6.77;;
6679;SDS011;3376;42.664;23.346;2023-01-28T07:08:42;7.05;;;6.68;;
6679;SDS011;3376;42.664;23.346;2023-01-28T07:11:09;6.57;;;6.27;;
6679;SDS011;3376;42.664;23.346;2023-01-28T07:13:37;6.90;;;6.40;;
6679;SDS011;3376;42.664;23.346;2023-01-28T07:16:04;6.50;;;6.00;;
6679;SDS011;3376;42.664;23.346;2023-01-28T07:18:31;7.73;;;7.30;;
6679;SDS011;3376;42.664;23.346;2023-01-28T07:20:58;7.40;;;7.10;;
6679;SDS011;3376;42.664;23.346;2023-01-28T07:23:25;6.90;;;6.50;;
6679;SDS011;3376;42.664;23.346;2023-01-28T07:25:52;7.43;;;6.83;;
6679;SDS011;3376;42.664;23.346;2023-01-28T07:28:18;7.50;;;6.93;;
6679;SDS011;3376;42.664;23.346;2023-01-28T07:30:48;6.67;;;6.33;;
6679;SDS011;3376;42.664;23.346;2023-01-28T07:33:16;8.00;;;7.60;;
6679;SDS011;3376;42.664;23.346;2023-01-28T07:35:43;7.67;;;7.27;;
6679;SDS011;3376;42.664;23.346;2023-01-28T07:38:10;7.37;;;6.97;;
6679;SDS011;3376;42.664;23.346;2023-01-28T07:40:38;6.90;;;6.40;;
6679;SDS011;3376;42.664;23.346;2023-01-28T07:43:06;6.93;;;6.53;;
6679;SDS011;3376;42.664;23.346;2023-01-28T07:45:33;6.20;;;5.87;;
6679;SDS011;3376;42.664;23.346;2023-01-28T07:48:02;7.03;;;6.63;;
6679;SDS011;3376;42.664;23.346;2023-01-28T07:50:31;7.87;;;7.37;;
6679;SDS011;3376;42.664;23.346;2023-01-28T07:53:01;7.07;;;6.47;;
6679;SDS011;3376;42.664;23.346;2023-01-28T07:55:28;6.90;;;6.50;;
6679;SDS011;3376;42.664;23.346;2023-01-28T07:57:55;7.33;;;6.83;;
6679;SDS011;3376;42.664;23.346;2023-01-28T08:00:23;8.37;;;7.97;;
6679;SDS011;3376;42.664;23.346;2023-01-28T08:02:54;8.13;;;7.73;;
6679;SDS011;3376;42.664;23.346;2023-01-28T08:05:23;8.23;;;7.80;;
6679;SDS011;3376;42.664;23.346;2023-01-28T08:07:51;8.97;;;8.57;;
6679;SDS011;3376;42.664;23.346;2023-01-28T08:10:18;7.73;;;7.23;;
6679;SDS011;3376;42.664;23.346;2023-01-28T08:12:51;6.17;;;5.77;;
6679;SDS011;3376;42.664;23.346;2023-01-28T08:15:18;5.20;;;4.80;;
6679;SDS011;3376;42.664;23.346;2023-01-28T08:17:45;7.07;;;6.57;;
6679;SDS011;3376;42.664;23.346;2023-01-28T08:20:12;8.47;;;7.97;;
6679;SDS011;3376;42.664;23.346;2023-01-28T08:22:40;8.10;;;7.70;;
6679;SDS011;3376;42.664;23.346;2023-01-28T08:25:07;8.33;;;7.83;;
6679;SDS011;3376;42.664;23.346;2023-01-28T08:27:34;7.80;;;7.30;;
6679;SDS011;3376;42.664;23.346;2023-01-28T08:30:01;7.77;;;7.33;;
6679;SDS011;3376;42.664;23.346;2023-01-28T08:32:28;8.33;;;7.67;;
6679;SDS011;3376;42.664;23.346;2023-01-28T08:34:55;7.53;;;7.23;;
6679;SDS011;3376;42.664;23.346;2023-01-28T08:37:22;7.10;;;6.80;;
6679;SDS011;3376;42.664;23.346;2023-01-28T08:39:50;7.77;;;7.27;;
6679;SDS011;3376;42.664;23.346;2023-01-28T08:42:16;8.07;;;7.50;;
6679;SDS011;3376;42.664;23.346;2023-01-28T08:44:43;6.90;;;6.50;;
6679;SDS011;3376;42.664;23.346;2023-01-28T08:47:12;7.93;;;7.43;;
6679;SDS011;3376;42.664;23.346;2023-01-28T08:49:38;7.73;;;7.23;;
6679;SDS011;3376;42.664;23.346;2023-01-28T08:52:05;6.60;;;6.20;;
6679;SDS011;3376;42.664;23.346;2023-01-28T08:54:32;6.67;;;6.27;;
6679;SDS011;3376;42.664;23.346;2023-01-28T08:57:01;7.30;;;6.80;;
6679;SDS011;3376;42.664;23.346;2023-01-28T08:59:28;7.50;;;6.97;;
6679;SDS011;3376;42.664;23.346;2023-01-28T09:01:55;6.17;;;5.87;;
6679;SDS011;3376;42.664;23.346;2023-01-28T09:04:22;7.10;;;6.70;;
6679;SDS011;3376;42.664;23.346;2023-01-28T09:06:49;6.90;;;6.50;;
6679;SDS011;3376;42.664;23.346;2023-01-28T09:09:15;6.37;;;6.07;;
6679;SDS011;3376;42.664;23.346;2023-01-28T09:11:42;6.37;;;6.07;;
6679;SDS011;3376;42.664;23.346;2023-01-28T09:14:10;6.30;;;5.90;;
6679;SDS011;3376;42.664;23.346;2023-01-28T09:16:37;6.97;;;6.47;;
6679;SDS011;3376;42.664;23.346;2023-01-28T09:19:03;6.43;;;6.13;;
6679;SDS011;3376;42.664;23.346;2023-01-28T09:21:30;7.03;;;6.63;;
6679;SDS011;3376;42.664;23.346;2023-01-28T09:23:57;6.20;;;5.63;;
6679;SDS011;3376;42.664;23.346;2023-01-28T09:26:23;7.83;;;7.23;;
6679;SDS011;3376;42.664;23.346;2023-01-28T09:28:50;7.73;;;7.17;;
6679;SDS011;3376;42.664;23.346;2023-01-28T09:31:18;7.23;;;6.83;;
6679;SDS011;3376;42.664;23.346;2023-01-28T09:33:45;7.53;;;6.97;;
6679;SDS011;3376;42.664;23.346;2023-01-28T09:36:12;8.30;;;7.70;;
6679;SDS011;3376;42.664;23.346;2023-01-28T09:38:39;8.17;;;7.47;;
6679;SDS011;3376;42.664;23.346;2023-01-28T09:41:14;8.20;;;7.60;;
6679;SDS011;3376;42.664;23.346;2023-01-28T09:43:53;7.90;;;7.30;;
6679;SDS011;3376;42.664;23.346;2023-01-28T09:46:35;7.90;;;7.30;;
6679;SDS011;3376;42.664;23.346;2023-01-28T09:49:04;7.23;;;6.83;;
6679;SDS011;3376;42.664;23.346;2023-01-28T09:51:44;8.80;;;8.20;;
6679;SDS011;3376;42.664;23.346;2023-01-28T09:54:15;8.23;;;7.53;;
6679;SDS011;3376;42.664;23.346;2023-01-28T09:56:50;8.73;;;8.07;;
6679;SDS011;3376;42.664;23.346;2023-01-28T09:59:23;9.57;;;8.87;;
6679;SDS011;3376;42.664;23.346;2023-01-28T10:01:53;9.17;;;8.53;;
6679;SDS011;3376;42.664;23.346;2023-01-28T10:04:27;9.67;;;8.80;;
6679;SDS011;3376;42.664;23.346;2023-01-28T10:07:11;8.47;;;7.87;;
6679;SDS011;3376;42.664;23.346;2023-01-28T10:09:51;7.97;;;7.37;;
6679;SDS011;3376;42.664;23.346;2023-01-28T10:12:33;7.53;;;7.03;;
6679;SDS011;3376;42.664;23.346;2023-01-28T10:15:16;8.90;;;8.20;;
6679;SDS011;3376;42.664;23.346;2023-01-28T10:17:55;7.50;;;6.97;;
6679;SDS011;3376;42.664;23.346;2023-01-28T10:20:26;7.83;;;7.33;;
6679;SDS011;3376;42.664;23.346;2023-01-28T10:22:57;9.03;;;8.30;;
6679;SDS011;3376;42.664;23.346;2023-01-28T10:25:30;9.53;;;8.83;;
6679;SDS011;3376;42.664;23.346;2023-01-28T10:27:59;9.97;;;9.27;;
6679;SDS011;3376;42.664;23.346;2023-01-28T10:30:27;9.77;;;9.03;;
6679;SDS011;3376;42.664;23.346;2023-01-28T10:33:00;10.43;;;9.63;;
6679;SDS011;3376;42.664;23.346;2023-01-28T10:35:30;9.27;;;8.60;;
6679;SDS011;3376;42.664;23.346;2023-01-28T10:38:01;9.20;;;8.53;;
6679;SDS011;3376;42.664;23.346;2023-01-28T10:40:32;9.43;;;8.80;;
6679;SDS011;3376;42.664;23.346;2023-01-28T10:42:59;9.37;;;8.60;;
6679;SDS011;3376;42.664;23.346;2023-01-28T10:45:27;8.87;;;8.13;;
6679;SDS011;3376;42.664;23.346;2023-01-28T10:48:00;9.73;;;8.93;;
6679;SDS011;3376;42.664;23.346;2023-01-28T10:50:32;9.23;;;8.40;;
6679;SDS011;3376;42.664;23.346;2023-01-28T10:53:00;8.03;;;7.50;;
6679;SDS011;3376;42.664;23.346;2023-01-28T10:55:28;8.37;;;7.83;;
6679;SDS011;3376;42.664;23.346;2023-01-28T10:57:57;8.10;;;7.60;;
6679;SDS011;3376;42.664;23.346;2023-01-28T11:00:25;8.13;;;7.73;;
6679;SDS011;3376;42.664;23.346;2023-01-28T11:02:54;8.50;;;7.80;;
6679;SDS011;3376;42.664;23.346;2023-01-28T11:05:24;6.90;;;6.50;;
6679;SDS011;3376;42.664;23.346;2023-01-28T11:08:03;8.87;;;8.27;;
6679;SDS011;3376;42.664;23.346;2023-01-28T11:10:32;8.93;;;8.27;;
6679;SDS011;3376;42.664;23.346;2023-01-28T11:13:01;7.93;;;7.37;;
6679;SDS011;3376;42.664;23.346;2023-01-28T11:15:29;7.43;;;7.03;;
6679;SDS011;3376;42.664;23.346;2023-01-28T11:17:58;8.10;;;7.60;;
6679;SDS011;3376;42.664;23.346;2023-01-28T11:20:36;9.33;;;8.70;;
6679;SDS011;3376;42.664;23.346;2023-01-28T11:23:14;9.07;;;8.47;;
6679;SDS011;3376;42.664;23.346;2023-01-28T11:25:44;8.20;;;7.70;;
6679;SDS011;3376;42.664;23.346;2023-01-28T11:28:14;8.63;;;8.13;;
6679;SDS011;3376;42.664;23.346;2023-01-28T11:30:44;8.17;;;7.67;;
6679;SDS011;3376;42.664;23.346;2023-01-28T11:33:18;9.03;;;8.33;;
6679;SDS011;3376;42.664;23.346;2023-01-28T11:35:54;8.07;;;7.53;;
6679;SDS011;3376;42.664;23.346;2023-01-28T11:38:23;9.00;;;7.40;;
6679;SDS011;3376;42.664;23.346;2023-01-28T11:40:51;8.30;;;7.70;;
6679;SDS011;3376;42.664;23.346;2023-01-28T11:43:19;8.70;;;8.00;;
6679;SDS011;3376;42.664;23.346;2023-01-28T11:45:51;7.70;;;7.20;;
6679;SDS011;3376;42.664;23.346;2023-01-28T11:48:28;8.73;;;8.13;;
6679;SDS011;3376;42.664;23.346;2023-01-28T11:51:06;8.47;;;7.87;;
6679;SDS011;3376;42.664;23.346;2023-01-28T11:53:51;7.47;;;7.07;;
6679;SDS011;3376;42.664;23.346;2023-01-28T11:56:37;8.10;;;7.60;;
6679;SDS011;3376;42.664;23.346;2023-01-28T11:59:20;8.83;;;8.23;;
6679;SDS011;3376;42.664;23.346;2023-01-28T12:01:58;8.53;;;8.03;;
6679;SDS011;3376;42.664;23.346;2023-01-28T12:04:39;8.17;;;7.47;;
6679;SDS011;3376;42.664;23.346;2023-01-28T12:07:27;7.10;;;6.70;;
6679;SDS011;3376;42.664;23.346;2023-01-28T12:10:05;7.57;;;7.07;;
6679;SDS011;3376;42.664;23.346;2023-01-28T12:12:44;8.30;;;7.70;;
6679;SDS011;3376;42.664;23.346;2023-01-28T12:18:27;6.50;;;6.10;;
6679;SDS011;3376;42.664;23.346;2023-01-28T12:21:20;8.00;;;7.50;;
6679;SDS011;3376;42.664;23.346;2023-01-28T12:24:09;7.87;;;7.27;;
6679;SDS011;3376;42.664;23.346;2023-01-28T12:26:47;8.40;;;7.87;;
6679;SDS011;3376;42.664;23.346;2023-01-28T12:29:25;7.17;;;6.77;;
6679;SDS011;3376;42.664;23.346;2023-01-28T12:32:02;8.63;;;8.13;;
6679;SDS011;3376;42.664;23.346;2023-01-28T12:34:57;8.87;;;8.20;;
6679;SDS011;3376;42.664;23.346;2023-01-28T12:37:34;9.70;;;7.13;;
6679;SDS011;3376;42.664;23.346;2023-01-28T12:40:15;8.57;;;7.97;;
6679;SDS011;3376;42.664;23.346;2023-01-28T12:42:50;8.67;;;8.07;;
6679;SDS011;3376;42.664;23.346;2023-01-28T12:45:22;7.90;;;7.40;;
6679;SDS011;3376;42.664;23.346;2023-01-28T12:47:53;6.73;;;6.33;;
6679;SDS011;3376;42.664;23.346;2023-01-28T12:50:24;8.30;;;7.70;;
6679;SDS011;3376;42.664;23.346;2023-01-28T12:52:56;8.13;;;7.70;;
6679;SDS011;3376;42.664;23.346;2023-01-28T12:55:33;8.57;;;8.07;;
6679;SDS011;3376;42.664;23.346;2023-01-28T12:58:06;11.40;;;9.87;;
6679;SDS011;3376;42.664;23.346;2023-01-28T13:00:42;8.73;;;8.03;;
6679;SDS011;3376;42.664;23.346;2023-01-28T13:03:15;9.27;;;8.77;;
6679;SDS011;3376;42.664;23.346;2023-01-28T13:05:47;9.87;;;9.27;;
6679;SDS011;3376;42.664;23.346;2023-01-28T13:08:16;7.70;;;7.20;;
6679;SDS011;3376;42.664;23.346;2023-01-28T13:10:49;8.97;;;8.37;;
6679;SDS011;3376;42.664;23.346;2023-01-28T13:13:17;9.13;;;8.20;;
6679;SDS011;3376;42.664;23.346;2023-01-28T13:15:48;8.30;;;7.67;;
6679;SDS011;3376;42.664;23.346;2023-01-28T13:21:11;9.53;;;8.73;;
6679;SDS011;3376;42.664;23.346;2023-01-28T13:23:42;9.77;;;9.07;;
6679;SDS011;3376;42.664;23.346;2023-01-28T13:26:27;9.53;;;8.83;;
6679;SDS011;3376;42.664;23.346;2023-01-28T13:31:55;9.83;;;9.13;;
6679;SDS011;3376;42.664;23.346;2023-01-28T13:34:34;8.67;;;8.07;;
6679;SDS011;3376;42.664;23.346;2023-01-28T13:37:03;8.17;;;7.73;;
6679;SDS011;3376;42.664;23.346;2023-01-28T13:39:45;8.90;;;8.33;;
6679;SDS011;3376;42.664;23.346;2023-01-28T13:42:25;8.00;;;7.40;;
6679;SDS011;3376;42.664;23.346;2023-01-28T13:44:54;9.80;;;8.90;;
6679;SDS011;3376;42.664;23.346;2023-01-28T13:47:22;9.43;;;8.70;;
6679;SDS011;3376;42.664;23.346;2023-01-28T13:49:56;9.80;;;9.10;;
6679;SDS011;3376;42.664;23.346;2023-01-28T13:52:27;8.37;;;7.67;;
6679;SDS011;3376;42.664;23.346;2023-01-28T13:54:58;8.40;;;7.80;;
6679;SDS011;3376;42.664;23.346;2023-01-28T13:57:42;8.97;;;8.30;;
6679;SDS011;3376;42.664;23.346;2023-01-28T14:00:22;10.30;;;9.50;;
6679;SDS011;3376;42.664;23.346;2023-01-28T14:03:09;8.23;;;7.67;;
6679;SDS011;3376;42.664;23.346;2023-01-28T14:09:05;8.10;;;7.60;;
6679;SDS011;3376;42.664;23.346;2023-01-28T14:12:08;8.57;;;8.03;;
6679;SDS011;3376;42.664;23.346;2023-01-28T14:15:05;8.27;;;7.73;;
6679;SDS011;3376;42.664;23.346;2023-01-28T14:17:40;9.77;;;9.07;;
6679;SDS011;3376;42.664;23.346;2023-01-28T14:20:13;9.70;;;9.00;;
6679;SDS011;3376;42.664;23.346;2023-01-28T14:22:44;9.53;;;8.83;;
6679;SDS011;3376;42.664;23.346;2023-01-28T14:25:13;9.03;;;8.13;;
6679;SDS011;3376;42.664;23.346;2023-01-28T14:27:44;9.80;;;9.03;;
6679;SDS011;3376;42.664;23.346;2023-01-28T14:30:17;9.30;;;8.67;;
6679;SDS011;3376;42.664;23.346;2023-01-28T14:32:50;11.20;;;10.20;;
6679;SDS011;3376;42.664;23.346;2023-01-28T14:35:24;11.63;;;10.73;;
6679;SDS011;3376;42.664;23.346;2023-01-28T14:37:54;10.87;;;9.87;;
6679;SDS011;3376;42.664;23.346;2023-01-28T14:40:22;11.23;;;10.33;;
6679;SDS011;3376;42.664;23.346;2023-01-28T14:42:50;10.63;;;9.83;;
6679;SDS011;3376;42.664;23.346;2023-01-28T14:45:28;11.37;;;10.40;;
6679;SDS011;3376;42.664;23.346;2023-01-28T14:48:15;11.37;;;10.27;;
6679;SDS011;3376;42.664;23.346;2023-01-28T14:50:54;9.80;;;9.03;;
6679;SDS011;3376;42.664;23.346;2023-01-28T14:54:01;9.43;;;8.73;;
6679;SDS011;3376;42.664;23.346;2023-01-28T14:56:40;11.73;;;10.70;;
6679;SDS011;3376;42.664;23.346;2023-01-28T14:59:20;10.07;;;9.27;;
6679;SDS011;3376;42.664;23.346;2023-01-28T15:01:53;9.67;;;8.90;;
6679;SDS011;3376;42.664;23.346;2023-01-28T15:04:24;9.17;;;8.57;;
6679;SDS011;3376;42.664;23.346;2023-01-28T15:06:52;10.30;;;9.40;;
6679;SDS011;3376;42.664;23.346;2023-01-28T15:09:19;7.43;;;6.93;;
6679;SDS011;3376;42.664;23.346;2023-01-28T15:11:47;8.37;;;7.87;;
6679;SDS011;3376;42.664;23.346;2023-01-28T15:14:19;7.63;;;7.13;;
6679;SDS011;3376;42.664;23.346;2023-01-28T15:16:52;8.00;;;7.47;;
6679;SDS011;3376;42.664;23.346;2023-01-28T15:19:22;7.83;;;7.23;;
6679;SDS011;3376;42.664;23.346;2023-01-28T15:21:53;6.77;;;6.37;;
6679;SDS011;3376;42.664;23.346;2023-01-28T15:24:22;7.70;;;7.10;;
6679;SDS011;3376;42.664;23.346;2023-01-28T15:26:48;8.03;;;7.43;;
6679;SDS011;3376;42.664;23.346;2023-01-28T15:29:22;6.90;;;6.57;;
6679;SDS011;3376;42.664;23.346;2023-01-28T15:31:49;7.23;;;6.70;;
6679;SDS011;3376;42.664;23.346;2023-01-28T15:34:19;7.37;;;6.77;;
6679;SDS011;3376;42.664;23.346;2023-01-28T15:36:47;8.73;;;8.23;;
6679;SDS011;3376;42.664;23.346;2023-01-28T15:39:15;8.20;;;7.60;;